Time;durP1;ratioP1;P1;durP2;ratioP2;P2;SDS_P1;SDS_P2;PMS_P1;PMS_P2;Temp;Humidity;BMP_temperature;BMP_pressure;BME280_temperature;BME280_humidity;BME280_pressure;Samples;Min_cycle;Max_cycle;Signal;HPM_P1;HPM_P2
2022/09/02 00:00:59;;;;;;;2.75;1.40;;;;;;;16.85;54.88;101789.09;5011539;28;20086;-75
2022/09/02 00:03:34;;;;;;;1.45;1.30;;;;;;;16.78;55.10;101791.91;5029576;28;20099;-75
2022/09/02 00:06:01;;;;;;;1.70;1.38;;;;;;;16.88;54.72;101785.91;5028030;28;20449;-75
2022/09/02 00:08:30;;;;;;;2.90;1.02;;;;;;;16.77;55.29;101783.81;5008242;28;20116;-74
2022/09/02 00:10:55;;;;;;;1.15;1.05;;;;;;;16.72;55.56;101780.84;5012204;28;20426;-75
2022/09/02 00:13:22;;;;;;;1.90;1.10;;;;;;;16.68;55.54;101782.31;5013091;28;20029;-74
2022/09/02 00:15:50;;;;;;;1.90;1.48;;;;;;;16.89;55.41;101787.63;5024127;28;20025;-77
2022/09/02 00:18:17;;;;;;;1.58;0.90;;;;;;;16.77;55.76;101775.50;5022288;28;20021;-76
2022/09/02 00:20:44;;;;;;;5.28;1.25;;;;;;;16.74;55.88;101770.38;5009102;28;20109;-75
2022/09/02 00:23:10;;;;;;;6.95;1.27;;;;;;;16.72;55.79;101773.41;5010835;28;20057;-75
2022/09/02 00:25:37;;;;;;;2.25;1.27;;;;;;;16.70;55.91;101766.38;5004471;28;20445;-74
2022/09/02 00:28:03;;;;;;;;;;;;;;;16.73;55.88;101771.47;5018407;28;20037;-75
2022/09/02 00:30:30;;;;;;;3.20;1.40;;;;;;;16.74;55.80;101774.03;5019579;28;19920;-76
2022/09/02 00:32:55;;;;;;;2.88;1.50;;;;;;;16.71;55.91;101768.91;5010468;28;20037;-75
2022/09/02 00:35:21;;;;;;;6.63;1.53;;;;;;;16.75;55.66;101761.03;5020502;28;20056;-75
2022/09/02 00:37:46;;;;;;;2.57;1.00;;;;;;;16.81;55.83;101765.72;5022761;28;20032;-76
2022/09/02 00:40:12;;;;;;;5.17;1.17;;;;;;;16.78;55.68;101766.13;5009092;28;20033;-76
2022/09/02 00:42:39;;;;;;;2.85;1.15;;;;;;;16.75;55.81;101767.41;5019234;28;20411;-76
2022/09/02 00:45:06;;;;;;;6.43;1.30;;;;;;;16.94;54.53;101754.59;5027403;28;20056;-76
2022/09/02 00:47:34;;;;;;;4.63;1.38;;;;;;;16.87;55.24;101757.38;5029736;28;20437;-76
2022/09/02 00:50:00;;;;;;;1.58;1.10;;;;;;;16.78;55.51;101746.75;4994981;28;20025;-76
2022/09/02 00:52:29;;;;;;;4.30;1.20;;;;;;;16.78;55.58;101749.53;5011867;28;20062;-76
2022/09/02 00:54:59;;;;;;;5.20;1.50;;;;;;;16.81;55.35;101746.34;5020509;28;20026;-76
2022/09/02 00:57:29;;;;;;;3.95;1.58;;;;;;;16.87;55.20;101751.84;5017881;28;20155;-76
2022/09/02 00:59:57;;;;;;;4.70;1.27;;;;;;;16.91;55.00;101755.06;5010339;28;20134;-76
2022/09/02 01:02:24;;;;;;;2.05;1.60;;;;;;;16.92;54.89;101752.03;5007221;28;20405;-75
2022/09/02 01:04:55;;;;;;;6.28;1.50;;;;;;;16.89;54.70;101749.72;5010730;28;20025;-75
2022/09/02 01:07:21;;;;;;;1.13;1.02;;;;;;;16.80;55.17;101742.72;5030065;28;20048;-76
2022/09/02 01:09:50;;;;;;;1.20;1.10;;;;;;;16.74;55.72;101743.56;5027264;28;20357;-76
2022/09/02 01:12:15;;;;;;;7.20;1.20;;;;;;;16.78;55.49;101746.75;5011456;28;20373;-76
2022/09/02 01:14:41;;;;;;;1.37;1.20;;;;;;;16.75;55.49;101747.22;5007414;28;20122;-75
2022/09/02 01:17:07;;;;;;;2.83;1.60;;;;;;;16.73;55.95;101749.31;5030105;28;20030;-75
2022/09/02 01:19:58;;;;;;;1.50;1.40;;;;;;;16.67;56.12;101744.66;5012677;28;20029;-75
2022/09/02 01:22:27;;;;;;;5.82;1.38;;;;;;;16.61;56.26;101751.03;5014143;28;20033;-75
2022/09/02 01:24:55;;;;;;;2.47;1.27;;;;;;;16.73;56.11;101736.34;5014084;28;20404;-76
2022/09/02 01:27:24;;;;;;;3.65;1.33;;;;;;;16.66;56.65;101746.56;5030995;28;20477;-75
2022/09/02 01:29:51;;;;;;;5.93;1.48;;;;;;;16.71;56.21;101734.88;5012070;28;20396;-75
2022/09/02 01:32:17;;;;;;;2.38;1.10;;;;;;;16.65;56.47;101744.03;5033021;28;20029;-75
2022/09/02 01:34:42;;;;;;;6.00;1.97;;;;;;;16.61;56.63;101737.22;5001393;28;20034;-76
2022/09/02 01:37:08;;;;;;;2.37;1.03;;;;;;;16.51;57.07;101739.56;5015302;28;20056;-75
2022/09/02 01:39:33;;;;;;;2.30;1.23;;;;;;;16.50;56.87;101737.88;5009609;28;20018;-76
2022/09/02 01:42:01;;;;;;;3.17;1.67;;;;;;;16.54;56.86;101730.84;5020415;28;20481;-75
2022/09/02 01:44:26;;;;;;;4.15;1.08;;;;;;;16.58;56.94;101729.34;5014562;28;20045;-75
2022/09/02 01:46:53;;;;;;;4.53;1.47;;;;;;;16.51;56.73;101729.38;5031606;28;20032;-75
2022/09/02 01:49:19;;;;;;;7.15;1.40;;;;;;;16.43;57.15;101725.97;4997295;28;20041;-75
2022/09/02 01:51:44;;;;;;;5.47;1.20;;;;;;;16.44;57.47;101725.72;5013932;28;20033;-76
2022/09/02 01:54:10;;;;;;;3.53;1.10;;;;;;;16.49;56.56;101719.56;5031974;28;20033;-76
2022/09/02 01:56:37;;;;;;;4.37;1.10;;;;;;;16.53;56.70;101718.06;5009298;28;20393;-76
2022/09/02 01:59:03;;;;;;;3.65;1.20;;;;;;;16.46;57.18;101717.22;5031148;28;20037;-75
2022/09/02 02:01:29;;;;;;;2.22;1.15;;;;;;;16.48;57.08;101723.41;5029788;28;20032;-74
2022/09/02 02:03:54;;;;;;;4.20;1.37;;;;;;;16.44;57.01;101713.84;4996667;28;20467;-74
2022/09/02 02:06:20;;;;;;;4.40;1.57;;;;;;;16.39;57.50;101710.88;5032541;28;20109;-75
2022/09/02 02:08:45;;;;;;;3.63;1.80;;;;;;;16.37;57.52;101721.22;5030386;28;20411;-75
2022/09/02 02:11:17;;;;;;;1.63;1.30;;;;;;;16.41;57.41;101719.78;5010066;28;20135;-75
2022/09/02 02:13:43;;;;;;;4.05;1.40;;;;;;;16.45;57.12;101713.63;5015538;28;20033;-75
2022/09/02 02:16:08;;;;;;;2.60;1.30;;;;;;;16.41;57.50;101717.00;5016216;28;20112;-76
2022/09/02 02:18:36;;;;;;;4.90;1.40;;;;;;;16.32;57.50;101713.59;5000692;28;20477;-75
2022/09/02 02:21:01;;;;;;;9.07;1.50;;;;;;;16.30;58.00;101720.41;5009894;28;20029;-76
2022/09/02 02:23:27;;;;;;;1.60;1.20;;;;;;;16.35;58.05;101720.59;5023447;28;20045;-74
2022/09/02 02:25:52;;;;;;;6.50;1.40;;;;;;;16.29;58.04;101722.31;5011945;28;20561;-75
2022/09/02 02:28:19;;;;;;;9.37;1.33;;;;;;;16.33;58.14;101720.81;5022880;28;20504;-75
2022/09/02 02:30:44;;;;;;;2.97;1.50;;;;;;;16.34;58.04;101716.16;5008359;28;20044;-75
2022/09/02 02:33:10;;;;;;;2.23;1.20;;;;;;;16.23;58.48;101714.03;5032396;28;20369;-76
2022/09/02 02:35:35;;;;;;;4.63;1.33;;;;;;;16.23;58.43;101714.03;5016786;28;20079;-75
2022/09/02 02:38:00;;;;;;;1.53;1.10;;;;;;;16.16;58.67;101710.41;5013634;28;20021;-75
2022/09/02 02:40:28;;;;;;;6.87;1.43;;;;;;;16.25;58.81;101714.66;5011270;28;20124;-75
2022/09/02 02:42:53;;;;;;;11.80;1.60;;;;;;;16.15;58.89;101711.47;5030199;28;20041;-74
2022/09/02 02:45:20;;;;;;;4.93;1.40;;;;;;;16.20;58.85;101714.44;5023853;28;20370;-75
2022/09/02 02:47:46;;;;;;;;;;;;;;;16.14;58.98;101701.47;5031011;28;20444;-75
2022/09/02 02:50:15;;;;;;;2.55;1.67;;;;;;;16.14;58.93;101709.75;5008101;28;19951;-75
2022/09/02 02:52:41;;;;;;;2.63;1.30;;;;;;;16.14;58.73;101707.88;5011479;28;20415;-75
2022/09/02 02:55:08;;;;;;;4.07;1.30;;;;;;;16.13;58.91;101708.94;5017813;28;20116;-74
2022/09/02 02:57:37;;;;;;;4.30;1.20;;;;;;;16.14;59.08;101705.09;5031230;28;20480;-75
2022/09/02 03:00:11;;;;;;;9.75;1.60;;;;;;;16.12;58.81;101700.84;5020820;28;20096;-75
2022/09/02 03:02:37;;;;;;;6.35;1.55;;;;;;;16.12;59.00;101695.31;5012271;28;20033;-73
2022/09/02 03:05:05;;;;;;;1.40;1.20;;;;;;;16.06;58.98;101701.69;5027928;28;20037;-76
2022/09/02 03:07:31;;;;;;;1.60;1.30;;;;;;;16.03;58.98;101693.81;4993639;28;20025;-74
2022/09/02 03:09:56;;;;;;;6.97;2.17;;;;;;;16.04;58.94;101695.50;5008416;28;20021;-74
2022/09/02 03:12:22;;;;;;;8.90;1.93;;;;;;;16.03;59.09;101694.69;5029320;28;20037;-75
2022/09/02 03:14:48;;;;;;;5.70;1.33;;;;;;;16.10;58.79;101697.41;5012820;28;20038;-76
2022/09/02 03:17:13;;;;;;;4.37;1.30;;;;;;;16.14;58.71;101694.03;5009060;28;20057;-74
2022/09/02 03:19:39;;;;;;;4.73;1.33;;;;;;;16.08;59.06;101699.56;5009980;28;20516;-76
2022/09/02 03:22:05;;;;;;;5.57;1.23;;;;;;;16.03;59.10;101696.56;5013582;28;20390;-75
2022/09/02 03:24:30;;;;;;;2.00;1.23;;;;;;;16.04;59.20;101690.84;5029902;28;20038;-74
2022/09/02 03:26:55;;;;;;;3.87;1.63;;;;;;;16.02;59.17;101692.13;5013039;28;20774;-74
2022/09/02 03:29:20;;;;;;;1.80;1.17;;;;;;;15.97;59.17;101689.13;5012845;28;20048;-74
2022/09/02 03:31:47;;;;;;;2.17;1.37;;;;;;;15.90;59.61;101691.88;5017086;28;20033;-74
2022/09/02 03:34:13;;;;;;;;;;;;;;;15.81;59.84;101686.78;5023234;28;20144;-74
2022/09/02 03:36:39;;;;;;;4.80;1.83;;;;;;;15.93;59.44;101685.94;5026074;28;20391;-74
2022/09/02 03:39:07;;;;;;;1.98;1.27;;;;;;;15.89;59.35;101681.91;5030482;28;20432;-74
2022/09/02 03:41:33;;;;;;;4.40;1.50;;;;;;;15.80;59.62;101685.09;5001644;28;20032;-76
2022/09/02 03:44:00;;;;;;;2.47;1.27;;;;;;;15.84;59.81;101678.91;5022699;28;20057;-75
2022/09/02 03:46:25;;;;;;;2.30;1.15;;;;;;;15.86;59.64;101675.94;4995921;28;20460;-74
2022/09/02 03:48:52;;;;;;;4.50;1.37;;;;;;;15.79;59.87;101673.19;5005235;28;20140;-74
2022/09/02 03:51:24;;;;;;;;;;;;;;;15.87;59.73;101674.88;5016276;28;20060;-76
2022/09/02 03:53:49;;;;;;;1.73;1.48;;;;;;;15.74;60.26;101680.41;5006442;28;19974;-76
2022/09/02 03:56:15;;;;;;;3.40;1.37;;;;;;;15.74;59.82;101669.38;5021288;28;20115;-76
2022/09/02 03:58:43;;;;;;;5.43;1.37;;;;;;;15.77;59.73;101668.91;5005091;28;20041;-75
2022/09/02 04:01:14;;;;;;;7.28;1.60;;;;;;;15.63;60.17;101662.53;5032777;28;20049;-78
2022/09/02 04:03:40;;;;;;;5.97;1.30;;;;;;;15.67;59.95;101665.72;5028951;28;20026;-77
2022/09/02 04:06:08;;;;;;;3.47;1.50;;;;;;;15.68;59.95;101670.22;5027839;28;20033;-76
2022/09/02 04:08:34;;;;;;;3.95;2.00;;;;;;;15.66;59.71;101655.72;5020343;28;20029;-76
2022/09/02 04:11:05;;;;;;;6.33;1.60;;;;;;;15.69;59.81;101655.31;5026664;28;20366;-75
2022/09/02 04:13:30;;;;;;;3.25;1.55;;;;;;;15.63;60.22;101658.94;4996315;28;20085;-76
2022/09/02 04:15:58;;;;;;;1.40;1.30;;;;;;;15.61;60.38;101661.03;5030859;28;20026;-76
2022/09/02 04:18:24;;;;;;;2.30;1.30;;;;;;;15.65;59.85;101665.09;5029047;28;20033;-76
2022/09/02 04:20:49;;;;;;;4.23;1.30;;;;;;;15.55;60.60;101659.13;5014302;28;20029;-77
2022/09/02 04:23:14;;;;;;;2.80;1.20;;;;;;;15.50;60.26;101653.38;5030120;28;20041;-75
2022/09/02 04:25:42;;;;;;;1.97;1.30;;;;;;;15.47;60.39;101656.56;5030006;28;20074;-76
2022/09/02 04:28:08;;;;;;;4.38;1.98;;;;;;;15.53;60.62;101655.72;5008306;28;20036;-74
2022/09/02 04:30:36;;;;;;;6.63;2.58;;;;;;;15.54;60.36;101649.13;4988035;28;20030;-73
2022/09/02 04:33:02;;;;;;;4.43;1.50;;;;;;;15.50;60.22;101650.59;5038908;28;20115;-74
2022/09/02 04:35:27;;;;;;;1.83;1.37;;;;;;;15.54;60.22;101646.38;5012547;28;20128;-77
2022/09/02 04:37:52;;;;;;;4.47;2.07;;;;;;;15.48;60.46;101647.22;5029857;28;20227;-73
2022/09/02 04:40:18;;;;;;;2.90;1.40;;;;;;;15.46;60.65;101649.31;5031550;28;20049;-76
2022/09/02 04:42:43;;;;;;;6.50;1.43;;;;;;;15.42;60.98;101648.06;5037556;28;20117;-75
2022/09/02 04:45:09;;;;;;;4.87;1.63;;;;;;;15.47;60.94;101648.28;5006629;28;20040;-75
2022/09/02 04:47:34;;;;;;;8.13;1.53;;;;;;;15.48;60.79;101647.22;4994987;28;20424;-75
2022/09/02 04:50:00;;;;;;;2.93;1.70;;;;;;;15.50;61.00;101645.09;5017512;28;20026;-77
2022/09/02 04:52:25;;;;;;;8.20;1.77;;;;;;;15.46;61.23;101643.78;5031793;28;20034;-76
2022/09/02 04:54:51;;;;;;;5.83;1.43;;;;;;;15.40;61.36;101641.88;5030946;28;20155;-78
2022/09/02 04:57:16;;;;;;;3.43;1.63;;;;;;;15.46;61.32;101643.78;5027670;28;20033;-77
2022/09/02 04:59:42;;;;;;;1.93;1.40;;;;;;;15.42;61.39;101639.78;5022880;28;20055;-77
2022/09/02 05:02:07;;;;;;;4.50;1.50;;;;;;;15.39;61.59;101637.41;5032511;28;20283;-77
2022/09/02 05:04:33;;;;;;;9.73;1.87;;;;;;;15.49;61.34;101646.16;5006310;28;20041;-77
2022/09/02 05:07:00;;;;;;;2.73;1.70;;;;;;;15.48;61.21;101648.06;5015182;28;20091;-77
2022/09/02 05:09:27;;;;;;;2.25;1.75;;;;;;;15.55;60.89;101637.03;5002624;28;20036;-77
2022/09/02 05:11:56;;;;;;;2.38;1.75;;;;;;;15.56;60.96;101638.72;4999545;28;20026;-77
2022/09/02 05:14:22;;;;;;;3.38;1.63;;;;;;;15.57;60.83;101651.47;4993053;28;20042;-77
2022/09/02 05:16:48;;;;;;;3.28;1.80;;;;;;;15.54;61.20;101651.91;5005399;28;20171;-77
2022/09/02 05:19:14;;;;;;;7.07;1.97;;;;;;;15.65;60.85;101648.50;5006455;28;20116;-76
2022/09/02 05:21:41;;;;;;;3.50;1.95;;;;;;;15.57;61.09;101656.97;5036469;28;20029;-76
2022/09/02 05:24:07;;;;;;;7.80;1.60;;;;;;;15.60;61.11;101646.41;5018040;28;20381;-76
2022/09/02 05:26:34;;;;;;;6.50;1.67;;;;;;;15.54;61.47;101655.50;5013256;28;20036;-76
2022/09/02 05:29:05;;;;;;;5.50;1.73;;;;;;;15.56;61.66;101655.28;5011948;28;20302;-76
2022/09/02 05:31:31;;;;;;;2.60;1.70;;;;;;;15.60;61.36;101654.69;5030732;28;20083;-78
2022/09/02 05:33:58;;;;;;;2.47;1.73;;;;;;;15.63;60.67;101647.88;5022429;28;20054;-77
2022/09/02 05:36:23;;;;;;;2.97;1.63;;;;;;;15.66;61.01;101655.72;5014749;28;20033;-77
2022/09/02 05:38:50;;;;;;;3.63;1.73;;;;;;;15.70;60.97;101648.75;5019855;28;20465;-77
2022/09/02 05:41:22;;;;;;;;;;;;;;;15.77;60.68;101647.69;5013363;28;20145;-75
2022/09/02 05:43:50;;;;;;;3.45;1.83;;;;;;;15.75;61.09;101651.72;5018249;28;19917;-76
2022/09/02 05:46:17;;;;;;;4.22;2.40;;;;;;;15.74;60.78;101642.56;4997781;28;20030;-76
2022/09/02 05:51:29;;;;;;;2.30;1.73;;;;;;;15.91;60.57;101643.84;5033224;28;20035;-77
2022/09/02 05:53:56;;;;;;;16.83;2.67;;;;;;;15.93;60.41;101651.94;5019678;28;20022;-77
2022/09/02 05:56:21;;;;;;;2.53;1.55;;;;;;;15.90;60.77;101650.44;5035999;28;20036;-76
2022/09/02 05:58:47;;;;;;;4.97;1.87;;;;;;;15.97;60.42;101642.16;5029438;28;20132;-77
2022/09/02 06:01:14;;;;;;;5.80;2.07;;;;;;;15.95;60.11;101647.88;5039130;28;20051;-77
2022/09/02 06:03:40;;;;;;;3.95;1.80;;;;;;;15.94;60.62;101645.31;5021836;28;20452;-77
2022/09/02 06:06:05;;;;;;;4.13;1.50;;;;;;;15.89;60.65;101648.75;5018371;28;20056;-76
2022/09/02 06:08:32;;;;;;;4.67;1.80;;;;;;;15.98;60.50;101643.84;5017522;28;20808;-77
2022/09/02 06:10:59;;;;;;;10.60;1.95;;;;;;;15.91;60.68;101646.59;5033731;28;20504;-77
2022/09/02 06:13:25;;;;;;;6.00;1.80;;;;;;;15.97;60.33;101653.22;5019774;28;20030;-78
2022/09/02 06:15:50;;;;;;;4.07;1.70;;;;;;;15.94;60.52;101645.31;5039846;28;20085;-78
2022/09/02 06:18:17;;;;;;;7.57;1.90;;;;;;;16.05;60.43;101650.22;5038769;28;20079;-77
2022/09/02 06:20:44;;;;;;;7.78;2.10;;;;;;;16.15;60.52;101642.34;5022440;28;20049;-77
2022/09/02 06:23:10;;;;;;;2.47;1.75;;;;;;;16.17;60.27;101643.00;5023133;28;20037;-77
2022/09/02 06:25:40;;;;;;;6.43;2.10;;;;;;;16.26;59.42;101650.84;5040557;28;20029;-77
2022/09/02 06:28:06;;;;;;;5.45;1.92;;;;;;;16.28;59.55;101650.66;5021855;28;20037;-77
2022/09/02 06:30:32;;;;;;;4.93;2.30;;;;;;;16.34;59.63;101644.25;5021613;28;20028;-77
2022/09/02 06:32:58;;;;;;;4.72;1.90;;;;;;;16.44;59.05;101640.00;5018985;28;20013;-77
2022/09/02 06:35:24;;;;;;;10.20;2.70;;;;;;;16.43;59.92;101643.00;5021184;28;20037;-77
2022/09/02 06:37:50;;;;;;;2.33;1.92;;;;;;;16.57;58.78;101642.75;5019191;28;20079;-77
2022/09/02 06:40:18;;;;;;;4.23;2.00;;;;;;;16.72;58.70;101648.00;5037779;28;20061;-77
2022/09/02 06:42:43;;;;;;;6.60;2.22;;;;;;;16.76;58.35;101635.44;5038069;28;20030;-77
2022/09/02 06:45:09;;;;;;;4.33;1.90;;;;;;;16.80;58.30;101640.31;5029451;28;20044;-77
2022/09/02 06:47:34;;;;;;;10.20;2.17;;;;;;;16.78;58.10;101642.47;5020218;28;20022;-78
2022/09/02 06:50:00;;;;;;;10.33;2.03;;;;;;;16.94;57.50;101638.34;5014278;28;20101;-78
2022/09/02 06:52:25;;;;;;;6.23;2.10;;;;;;;16.98;57.97;101634.09;5026289;28;20089;-77
2022/09/02 06:54:51;;;;;;;6.40;2.83;;;;;;;17.03;57.92;101629.56;5033581;28;20038;-78
2022/09/02 06:57:17;;;;;;;7.73;2.50;;;;;;;16.97;57.47;101629.63;5031433;28;20037;-78
2022/09/02 06:59:43;;;;;;;3.03;2.25;;;;;;;16.98;57.72;101625.78;5013235;28;20048;-78
2022/09/02 07:02:08;;;;;;;3.30;2.27;;;;;;;16.98;57.90;101629.38;5015652;28;20075;-79
2022/09/02 07:07:18;;;;;;;9.88;2.90;;;;;;;17.90;55.04;101626.91;5029461;28;20093;-78
2022/09/02 07:09:45;;;;;;;6.07;2.60;;;;;;;18.29;54.67;101630.16;5012527;28;20388;-79
2022/09/02 07:12:11;;;;;;;5.28;2.78;;;;;;;18.48;53.72;101626.38;5009137;28;20057;-77
2022/09/02 07:14:38;;;;;;;8.40;2.60;;;;;;;18.71;53.43;101620.13;5009327;28;20064;-77
2022/09/02 07:17:04;;;;;;;9.93;2.90;;;;;;;19.07;52.38;101620.97;5024616;28;20047;-78
2022/09/02 07:19:30;;;;;;;7.30;2.90;;;;;;;19.11;51.94;101615.78;5026485;28;20029;-78
2022/09/02 07:21:56;;;;;;;4.13;3.05;;;;;;;19.27;52.62;101621.56;4995279;28;20030;-78
2022/09/02 07:24:22;;;;;;;7.47;2.27;;;;;;;19.39;51.38;101610.50;5012914;28;20404;-77
2022/09/02 07:26:48;;;;;;;6.75;3.17;;;;;;;19.66;51.76;101618.22;5029681;28;20029;-78
2022/09/02 07:29:13;;;;;;;7.65;2.60;;;;;;;19.49;51.48;101619.97;5013003;28;20048;-78
2022/09/02 07:31:41;;;;;;;8.17;2.73;;;;;;;19.11;52.25;101626.91;5013222;28;20552;-78
2022/09/02 07:34:08;;;;;;;9.73;2.72;;;;;;;19.12;52.05;101614.69;5011167;28;20451;-78
2022/09/02 07:36:35;;;;;;;9.50;3.15;;;;;;;19.14;52.90;101615.31;5009395;28;20036;-79
2022/09/02 07:39:02;;;;;;;9.48;3.15;;;;;;;18.97;52.29;101614.25;5017350;28;20043;-79
2022/09/02 07:41:28;;;;;;;6.30;3.72;;;;;;;19.07;52.78;101620.97;5031311;28;20404;-79
2022/09/02 07:43:53;;;;;;;10.68;3.33;;;;;;;19.35;53.19;101620.38;5013742;28;20025;-78
2022/09/02 07:46:19;;;;;;;8.30;3.60;;;;;;;19.53;52.06;101618.38;5031724;28;20034;-79
2022/09/02 07:48:45;;;;;;;6.50;3.28;;;;;;;19.48;51.93;101618.25;5013858;28;20033;-79
2022/09/02 07:51:11;;;;;;;20.03;3.50;;;;;;;19.59;51.28;101613.84;5013715;28;20086;-79
2022/09/02 07:53:36;;;;;;;14.70;3.40;;;;;;;19.37;51.75;101621.84;5031516;28;20108;-78
2022/09/02 07:56:02;;;;;;;6.33;3.70;;;;;;;19.02;52.28;101614.41;5014240;28;20172;-79
2022/09/02 07:58:28;;;;;;;6.13;3.58;;;;;;;18.86;53.34;101615.91;5014612;28;20116;-79
2022/09/02 08:00:57;;;;;;;11.60;4.63;;;;;;;19.04;52.89;101612.25;5014318;28;20160;-79
2022/09/02 08:03:24;;;;;;;7.82;3.55;;;;;;;19.23;53.74;101609.25;4998770;28;20034;-79
2022/09/02 08:05:50;;;;;;;6.63;3.67;;;;;;;19.20;52.93;101614.38;5011447;28;20099;-79
2022/09/02 08:08:19;;;;;;;7.35;3.13;;;;;;;19.31;52.96;101611.66;5011697;28;20401;-79
2022/09/02 08:10:45;;;;;;;5.18;3.58;;;;;;;19.47;52.03;101618.50;5011466;28;20076;-79
2022/09/02 08:13:11;;;;;;;11.95;3.95;;;;;;;19.72;51.81;101614.47;5023522;28;20038;-79
2022/09/02 08:15:37;;;;;;;11.30;3.90;;;;;;;19.82;51.80;101605.53;4994710;28;20095;-79
2022/09/02 08:18:03;;;;;;;12.90;3.88;;;;;;;19.71;51.86;101611.91;5030586;28;20044;-79
2022/09/02 08:20:32;;;;;;;16.75;3.60;;;;;;;19.98;51.58;101613.19;5034637;28;20049;-78
2022/09/02 08:22:58;;;;;;;10.13;3.28;;;;;;;20.17;51.99;101612.03;5035989;28;20030;-79
2022/09/02 08:25:24;;;;;;;15.00;3.30;;;;;;;20.20;51.83;101609.59;5018905;28;20040;-80
2022/09/02 08:27:49;;;;;;;5.78;3.60;;;;;;;20.21;51.62;101602.09;5020565;28;20113;-80
2022/09/02 08:30:15;;;;;;;11.83;3.47;;;;;;;20.27;51.61;101612.28;5037165;28;20428;-78
2022/09/02 08:32:40;;;;;;;11.50;3.67;;;;;;;20.51;51.12;101602.81;5029483;28;20339;-79
2022/09/02 08:35:07;;;;;;;12.20;3.83;;;;;;;20.49;50.34;101602.22;5029615;28;20296;-77
2022/09/02 08:37:34;;;;;;;10.88;3.80;;;;;;;20.60;51.46;101601.34;5026633;28;20038;-79
2022/09/02 08:40:02;;;;;;;7.80;3.85;;;;;;;20.83;50.43;101596.59;5009806;28;20029;-78
2022/09/02 08:42:57;;;;;;;24.95;4.20;;;;;;;21.03;51.48;101599.81;5028023;28;20392;-77
2022/09/02 08:45:35;;;;;;;9.55;3.30;;;;;;;21.39;49.54;101601.38;5010000;28;20037;-80
2022/09/02 08:48:09;;;;;;;11.65;3.60;;;;;;;21.46;49.95;101596.47;5019783;28;20040;-77
2022/09/02 08:50:37;;;;;;;10.63;3.92;;;;;;;21.44;48.87;101601.47;5005255;28;20117;-78
2022/09/02 08:53:13;;;;;;;7.45;3.63;;;;;;;21.58;49.13;101594.47;5022620;28;20113;-80
2022/09/02 08:55:44;;;;;;;11.73;3.92;;;;;;;21.48;49.64;101594.28;5023249;28;20037;-79
2022/09/02 08:58:15;;;;;;;8.20;3.88;;;;;;;21.62;48.60;101584.50;4997499;28;20155;-79
2022/09/02 09:00:44;;;;;;;18.33;4.05;;;;;;;21.94;48.59;101588.47;5024581;28;20246;-79
2022/09/02 09:03:27;;;;;;;6.43;3.90;;;;;;;22.07;48.02;101582.53;5025267;28;20622;-78
2022/09/02 09:06:27;;;;;;;13.73;4.00;;;;;;;21.91;47.64;101589.81;5022596;28;20033;-77
2022/09/02 09:09:04;;;;;;;16.17;3.63;;;;;;;21.90;48.47;101588.13;5006474;28;20033;-78
2022/09/02 09:11:43;;;;;;;16.45;3.95;;;;;;;21.96;47.98;101589.03;5027284;28;20030;-79
2022/09/02 09:14:19;;;;;;;9.07;4.03;;;;;;;22.12;47.33;101586.25;5007257;28;20167;-78
2022/09/02 09:16:59;;;;;;;18.35;4.47;;;;;;;22.32;47.83;101580.13;5022124;28;20036;-79
2022/09/02 09:19:52;;;;;;;5.03;3.55;;;;;;;22.37;47.75;101588.59;5000693;28;20334;-78
2022/09/02 09:22:21;;;;;;;7.32;3.50;;;;;;;22.25;48.38;101582.25;5020892;28;20040;-81
2022/09/02 09:24:49;;;;;;;12.25;4.00;;;;;;;22.28;48.04;101581.72;5017419;28;20497;-79
2022/09/02 09:27:18;;;;;;;19.08;4.60;;;;;;;22.12;47.42;101580.66;5018101;28;20075;-79
2022/09/02 09:29:43;;;;;;;14.10;3.85;;;;;;;22.36;47.66;101575.72;5002125;28;20025;-80
2022/09/02 09:32:35;;;;;;;11.80;3.47;;;;;;;22.67;46.96;101583.47;5016855;28;20029;-79
2022/09/02 09:35:06;;;;;;;14.18;4.20;;;;;;;22.89;46.33;101582.34;5009985;28;20262;-78
2022/09/02 09:37:46;;;;;;;8.55;4.13;;;;;;;22.91;46.96;101579.31;5011377;28;20392;-78
2022/09/02 09:40:21;;;;;;;9.88;4.00;;;;;;;23.03;46.09;101577.22;5031436;28;20025;-78
2022/09/02 09:42:50;;;;;;;12.30;4.13;;;;;;;22.99;46.27;101570.47;5007384;28;20349;-78
2022/09/02 09:45:20;;;;;;;6.78;3.92;;;;;;;23.33;45.23;101572.00;5003989;28;20036;-79
2022/09/02 09:48:09;;;;;;;10.45;4.25;;;;;;;23.41;44.64;101568.72;5026616;28;20071;-78
2022/09/02 09:50:34;;;;;;;13.40;4.45;;;;;;;23.70;44.43;101570.97;5003225;28;20558;-78
2022/09/02 09:53:19;;;;;;;18.47;4.53;;;;;;;23.49;44.48;101583.09;5014114;28;20026;-79
2022/09/02 09:55:56;;;;;;;11.13;3.92;;;;;;;23.66;45.02;101567.03;5003156;28;20026;-78
2022/09/02 09:58:23;;;;;;;;;;;;;;;23.87;44.13;101571.72;5022837;28;20022;-79
2022/09/02 10:00:59;;;;;;;9.80;4.15;;;;;;;23.70;44.38;101570.16;5024618;28;19929;-81
2022/09/02 10:03:26;;;;;;;7.17;4.30;;;;;;;23.92;44.47;101576.53;5025963;28;20037;-80
2022/09/02 10:05:55;;;;;;;12.02;4.05;;;;;;;23.56;44.23;101574.47;5023075;28;20029;-79
2022/09/02 10:08:23;;;;;;;12.93;3.88;;;;;;;23.98;43.95;101569.84;5008229;28;20123;-80
2022/09/02 10:11:04;;;;;;;16.48;3.65;;;;;;;24.15;44.03;101559.34;5022553;28;20353;-79
2022/09/02 10:13:31;;;;;;;9.98;3.65;;;;;;;24.09;43.47;101563.22;5007700;28;20029;-80
2022/09/02 10:16:14;;;;;;;11.70;3.47;;;;;;;24.22;43.34;101554.38;5018833;28;20056;-79
2022/09/02 10:18:44;;;;;;;8.05;3.70;;;;;;;24.56;43.56;101556.53;5020428;28;20034;-79
2022/09/02 10:21:34;;;;;;;10.27;3.88;;;;;;;24.58;42.32;101553.47;5008465;28;20036;-78
2022/09/02 10:24:12;;;;;;;7.47;3.58;;;;;;;25.00;42.60;101551.44;5020148;28;20022;-79
2022/09/02 10:26:45;;;;;;;9.98;3.90;;;;;;;24.98;43.21;101546.09;5020370;28;20397;-78
2022/09/02 10:29:11;;;;;;;8.15;3.78;;;;;;;25.42;42.43;101544.56;5020810;28;20056;-80
2022/09/02 10:31:54;;;;;;;16.70;4.90;;;;;;;25.37;41.44;101544.56;5007708;28;20068;-79
2022/09/02 10:35:02;;;;;;;12.52;4.57;;;;;;;25.18;41.25;101546.16;5022393;28;20102;-79
2022/09/02 10:37:43;;;;;;;9.32;3.85;;;;;;;25.24;41.64;101542.25;5019297;28;20041;-80
2022/09/02 10:40:13;;;;;;;15.15;4.00;;;;;;;25.19;42.15;101545.03;5022322;28;20033;-80
2022/09/02 10:42:39;;;;;;;12.05;3.90;;;;;;;25.38;42.04;101536.97;5001763;28;20115;-80
2022/09/02 10:45:11;;;;;;;8.32;4.28;;;;;;;25.07;42.33;101547.25;5019907;28;20061;-79
2022/09/02 10:47:39;;;;;;;9.93;4.25;;;;;;;25.08;41.69;101540.50;5013341;28;20022;-79
2022/09/02 10:50:16;;;;;;;13.05;4.40;;;;;;;25.28;42.09;101536.97;5023186;28;20033;-78
2022/09/02 10:53:23;;;;;;;7.60;4.05;;;;;;;25.53;41.58;101540.66;5019212;28;20107;-80
2022/09/02 10:55:49;;;;;;;13.73;4.25;;;;;;;25.72;41.59;101533.34;4949062;28;20039;-79
2022/09/02 10:58:34;;;;;;;13.50;4.13;;;;;;;26.07;39.79;101529.72;5002316;28;20128;-78
2022/09/02 11:01:01;;;;;;;6.75;4.50;;;;;;;26.20;39.97;101529.16;5007156;28;20037;-79
2022/09/02 11:03:42;;;;;;;10.00;5.05;;;;;;;26.03;39.77;101535.06;5017607;28;20396;-81
2022/09/02 11:06:17;;;;;;;8.43;4.45;;;;;;;26.00;40.13;101527.22;5023548;28;20326;-80
2022/09/02 11:08:52;;;;;;;11.60;4.70;;;;;;;26.24;39.59;101519.03;5024365;28;20104;-79
2022/09/02 11:11:36;;;;;;;12.90;4.00;;;;;;;26.51;40.77;101513.91;5008773;28;20040;-80
2022/09/02 11:14:04;;;;;;;21.50;5.00;;;;;;;26.66;38.96;101514.72;5024444;28;20041;-80
2022/09/02 11:16:44;;;;;;;11.52;4.20;;;;;;;26.18;39.58;101512.56;5008699;28;20037;-80
2022/09/02 11:19:18;;;;;;;11.65;4.18;;;;;;;26.52;38.71;101518.41;5026763;28;20069;-80
2022/09/02 11:22:07;;;;;;;5.47;3.58;;;;;;;26.78;39.10;101511.59;5024537;28;20449;-80
2022/09/02 11:24:38;;;;;;;12.93;4.38;;;;;;;26.60;39.52;101513.06;5010821;28;20457;-79
2022/09/02 11:27:11;;;;;;;11.18;4.25;;;;;;;26.61;39.14;101503.47;5027129;28;20037;-79
2022/09/02 11:29:50;;;;;;;10.38;4.38;;;;;;;26.88;39.17;101495.47;5011007;28;20020;-81
2022/09/02 11:32:28;;;;;;;16.08;4.40;;;;;;;26.77;38.90;101501.44;5026976;28;20104;-80
2022/09/02 11:34:56;;;;;;;9.52;4.25;;;;;;;26.93;36.92;101495.47;5021257;28;20038;-80
2022/09/02 11:37:33;;;;;;;12.45;4.07;;;;;;;26.84;38.22;101494.38;5021458;28;20029;-79